Time;durP1;ratioP1;P1;durP2;ratioP2;P2;SDS_P1;SDS_P2;PMS_P1;PMS_P2;Temp;Humidity;BMP_temperature;BMP_pressure;BME280_temperature;BME280_humidity;BME280_pressure;Samples;Min_cycle;Max_cycle;Signal;HPM_P1;HPM_P2
2022/10/08 00:00:28;;;;;;;0.10;0.10;;;;;;;12.18;93.17;101537.72;4986311;28;20025;-79
2022/10/08 00:02:53;;;;;;;0.10;0.10;;;;;;;12.15;93.09;101536.13;4990828;28;20041;-79
2022/10/08 00:05:18;;;;;;;0.10;0.10;;;;;;;12.11;93.41;101549.91;4985063;28;20060;-75
2022/10/08 00:07:44;;;;;;;0.10;0.10;;;;;;;12.03;93.69;101536.16;4984363;28;20034;-77
2022/10/08 00:10:10;;;;;;;0.15;0.15;;;;;;;11.95;93.79;101536.66;4983090;28;20511;-78
2022/10/08 00:12:35;;;;;;;0.10;0.10;;;;;;;11.87;94.09;101512.16;4986448;28;20037;-78
2022/10/08 00:15:01;;;;;;;0.10;0.10;;;;;;;12.18;94.36;101556.56;4994328;28;20040;-75
2022/10/08 00:17:27;;;;;;;0.10;0.10;;;;;;;12.21;94.14;101550.94;4983726;28;20037;-79
2022/10/08 00:19:53;;;;;;;0.10;0.10;;;;;;;12.32;94.45;101549.28;4986132;28;20476;-77
2022/10/08 00:22:18;;;;;;;0.10;0.10;;;;;;;12.36;94.57;101561.53;4986042;28;20026;-77
2022/10/08 00:24:45;;;;;;;0.10;0.10;;;;;;;12.32;94.14;101550.16;4986260;28;20019;-77
2022/10/08 00:27:11;;;;;;;0.10;0.10;;;;;;;12.41;94.17;101545.91;4979208;28;20488;-74
2022/10/08 00:29:36;;;;;;;0.10;0.10;;;;;;;12.49;93.56;101554.28;4979945;28;20057;-75
2022/10/08 00:32:01;;;;;;;0.10;0.10;;;;;;;12.40;93.68;101525.34;4984037;28;20054;-77
2022/10/08 00:34:27;;;;;;;0.10;0.10;;;;;;;12.41;93.56;101537.84;4980136;28;20093;-76
2022/10/08 00:36:53;;;;;;;0.15;0.15;;;;;;;12.58;93.27;101545.50;4983461;28;20038;-74
2022/10/08 00:39:21;;;;;;;0.10;0.10;;;;;;;12.63;92.20;101552.38;4999985;28;20069;-75
2022/10/08 00:41:51;;;;;;;0.10;0.10;;;;;;;12.62;92.55;101540.75;4987251;28;20076;-75
2022/10/08 00:44:41;;;;;;;0.10;0.10;;;;;;;12.83;91.84;101557.16;4978824;28;20401;-77
2022/10/08 00:47:14;;;;;;;0.00;0.00;;;;;;;12.82;92.10;101552.72;4982179;28;20030;-75
2022/10/08 00:49:40;;;;;;;0.20;0.20;;;;;;;12.77;91.23;101527.09;4986829;28;20022;-77
2022/10/08 00:52:06;;;;;;;0.10;0.10;;;;;;;12.83;90.72;101534.72;4966231;28;20041;-73
2022/10/08 00:54:31;;;;;;;0.10;0.10;;;;;;;13.04;90.74;101559.16;4979822;28;20026;-76
2022/10/08 00:56:56;;;;;;;0.20;0.20;;;;;;;13.04;90.44;101553.78;4963497;28;20029;-75
2022/10/08 00:59:22;;;;;;;0.10;0.10;;;;;;;12.91;90.81;101543.06;4979939;28;20037;-77
2022/10/08 01:01:47;;;;;;;0.10;0.10;;;;;;;13.04;90.33;101557.31;4983571;28;20038;-78
2022/10/08 01:04:13;;;;;;;0.13;0.13;;;;;;;12.94;89.78;101539.28;4990507;28;20031;-75
2022/10/08 01:07:06;;;;;;;0.00;0.00;;;;;;;12.98;89.40;101541.59;4982817;28;20043;-76
2022/10/08 01:09:57;;;;;;;0.10;0.10;;;;;;;13.11;89.49;101563.09;4988057;28;20030;-74
2022/10/08 01:12:31;;;;;;;0.10;0.10;;;;;;;13.10;89.67;101564.09;4962875;28;20039;-74
2022/10/08 01:15:00;;;;;;;0.10;0.10;;;;;;;13.03;90.16;101539.41;4994031;28;20030;-76
2022/10/08 01:17:49;;;;;;;0.10;0.10;;;;;;;13.00;90.72;101549.59;4981943;28;20050;-77
2022/10/08 01:20:32;;;;;;;0.10;0.10;;;;;;;12.98;91.32;101544.31;4966180;28;20026;-76
2022/10/08 01:23:26;;;;;;;0.10;0.10;;;;;;;12.93;93.61;101551.03;4965714;28;20023;-74
2022/10/08 01:25:57;;;;;;;0.00;0.00;;;;;;;12.92;94.32;101568.19;4998040;28;20034;-74
2022/10/08 01:29:05;;;;;;;0.10;0.10;;;;;;;12.77;96.42;101571.06;4981130;28;20058;-77
2022/10/08 01:31:44;;;;;;;0.00;0.00;;;;;;;12.82;95.04;101568.91;4990971;28;20029;-77
2022/10/08 01:34:18;;;;;;;0.10;0.10;;;;;;;12.67;96.86;101559.25;4986445;28;20038;-76
2022/10/08 01:36:49;;;;;;;0.10;0.10;;;;;;;12.66;98.08;101562.94;4981819;28;20389;-75
2022/10/08 01:39:17;;;;;;;0.00;0.00;;;;;;;12.58;98.00;101558.97;4984049;28;20085;-77
2022/10/08 01:41:46;;;;;;;0.10;0.10;;;;;;;12.58;99.29;101572.44;4984752;28;20030;-77
2022/10/08 01:44:16;;;;;;;0.10;0.10;;;;;;;12.38;100.00;101544.31;4982888;28;20030;-77
2022/10/08 01:46:42;;;;;;;0.10;0.10;;;;;;;12.36;100.00;101550.78;4987712;28;20129;-77
2022/10/08 01:49:11;;;;;;;0.10;0.10;;;;;;;12.49;100.00;101580.34;4976830;28;20022;-76
2022/10/08 01:51:40;;;;;;;0.03;0.03;;;;;;;12.42;100.00;101571.88;4979944;28;20030;-76
2022/10/08 01:54:07;;;;;;;0.10;0.10;;;;;;;12.34;100.00;101560.78;4983723;28;20057;-76
2022/10/08 01:56:33;;;;;;;0.00;0.00;;;;;;;12.17;100.00;101576.38;4983405;28;20030;-78
2022/10/08 01:59:07;;;;;;;0.08;0.08;;;;;;;12.20;100.00;101568.06;4977934;28;20077;-77
2022/10/08 02:01:35;;;;;;;0.20;0.20;;;;;;;12.23;100.00;101573.25;4980954;28;20089;-77
2022/10/08 02:06:55;;;;;;;0.10;0.10;;;;;;;12.04;100.00;101565.63;4984329;28;20110;-77
2022/10/08 02:09:24;;;;;;;0.10;0.10;;;;;;;11.88;100.00;101557.78;4987623;28;20064;-77
2022/10/08 02:11:49;;;;;;;0.20;0.20;;;;;;;11.82;100.00;101575.22;4988167;28;20030;-77
2022/10/08 02:14:15;;;;;;;0.10;0.10;;;;;;;11.49;100.00;101573.97;4987722;28;20061;-77
2022/10/08 02:16:48;;;;;;;0.10;0.10;;;;;;;11.44;100.00;101583.31;4990700;28;20054;-77
2022/10/08 02:19:33;;;;;;;0.10;0.10;;;;;;;11.55;100.00;101580.72;4987373;28;20038;-77
2022/10/08 02:22:00;;;;;;;0.10;0.10;;;;;;;11.48;100.00;101576.75;4990962;28;20034;-75
2022/10/08 02:24:51;;;;;;;0.10;0.10;;;;;;;11.30;100.00;101590.50;4981007;28;20026;-78
2022/10/08 02:27:21;;;;;;;0.10;0.10;;;;;;;11.38;100.00;101593.53;4980858;28;20026;-76
2022/10/08 02:29:57;;;;;;;0.10;0.10;;;;;;;11.32;100.00;101577.81;4990082;28;20041;-78
2022/10/08 02:32:29;;;;;;;0.03;0.03;;;;;;;11.33;100.00;101563.41;5005257;28;20061;-76
2022/10/08 02:34:58;;;;;;;0.10;0.10;;;;;;;11.44;100.00;101599.47;4992017;28;20034;-76
2022/10/08 02:37:27;;;;;;;0.10;0.10;;;;;;;11.50;100.00;101596.34;4990495;28;20072;-76
2022/10/08 02:40:06;;;;;;;0.10;0.10;;;;;;;11.29;100.00;101596.84;4987890;28;20543;-76
2022/10/08 02:42:32;;;;;;;0.10;0.10;;;;;;;11.19;100.00;101585.88;5005212;28;20086;-77
2022/10/08 02:45:25;;;;;;;0.00;0.00;;;;;;;11.15;100.00;101586.19;4982268;28;20033;-77
2022/10/08 02:47:54;;;;;;;0.10;0.10;;;;;;;11.13;100.00;101585.44;4980848;28;20050;-77
2022/10/08 02:50:22;;;;;;;0.10;0.10;;;;;;;11.17;100.00;101581.56;4986382;28;20425;-76
2022/10/08 02:52:49;;;;;;;0.10;0.10;;;;;;;11.15;100.00;101573.59;4985983;28;20057;-76
2022/10/08 02:55:26;;;;;;;0.10;0.10;;;;;;;11.02;100.00;101580.78;4967551;28;20250;-77
2022/10/08 02:58:02;;;;;;;0.10;0.10;;;;;;;10.85;100.00;101552.38;4986187;28;20038;-75
2022/10/08 03:00:34;;;;;;;0.10;0.10;;;;;;;11.06;100.00;101585.84;4976822;28;20033;-77
2022/10/08 03:03:27;;;;;;;0.10;0.10;;;;;;;11.02;100.00;101584.31;4983399;28;20164;-76
2022/10/08 03:05:52;;;;;;;0.10;0.10;;;;;;;10.93;100.00;101585.81;4937380;28;20031;-77
2022/10/08 03:08:19;;;;;;;0.10;0.10;;;;;;;11.00;100.00;101578.19;4980097;28;20069;-75
2022/10/08 03:10:44;;;;;;;0.10;0.10;;;;;;;10.82;100.00;101549.91;4981856;28;20034;-77
2022/10/08 03:13:10;;;;;;;0.10;0.10;;;;;;;10.90;100.00;101593.22;4988547;28;20021;-76
2022/10/08 03:15:37;;;;;;;0.10;0.10;;;;;;;10.94;100.00;101589.38;4981563;28;20034;-77
2022/10/08 03:18:07;;;;;;;0.10;0.10;;;;;;;10.96;100.00;101590.13;4984313;28;20026;-76
2022/10/08 03:20:36;;;;;;;0.10;0.10;;;;;;;11.02;100.00;101594.22;4980904;28;20041;-77
2022/10/08 03:23:01;;;;;;;0.10;0.10;;;;;;;10.67;100.00;101538.34;4985291;28;20058;-76
2022/10/08 03:25:27;;;;;;;0.10;0.10;;;;;;;10.83;100.00;101589.22;4981482;28;20473;-76
2022/10/08 03:27:52;;;;;;;0.10;0.10;;;;;;;10.83;100.00;101590.09;4988352;28;20212;-76
2022/10/08 03:30:18;;;;;;;0.20;0.20;;;;;;;10.89;100.00;101599.56;4985090;28;20531;-77
2022/10/08 03:32:43;;;;;;;0.10;0.10;;;;;;;10.93;100.00;101599.25;4989266;28;20037;-77
2022/10/08 03:35:08;;;;;;;0.10;0.10;;;;;;;10.93;100.00;101606.47;4982463;28;20045;-77
2022/10/08 03:37:34;;;;;;;0.10;0.10;;;;;;;10.99;100.00;101602.50;4980994;28;20057;-77
2022/10/08 03:39:59;;;;;;;0.10;0.10;;;;;;;10.83;100.00;101597.28;4983181;28;20738;-77
2022/10/08 03:42:24;;;;;;;0.10;0.10;;;;;;;10.90;100.00;101625.47;4981403;28;20030;-77
2022/10/08 03:44:49;;;;;;;0.10;0.10;;;;;;;10.82;100.00;101607.19;4980169;28;20121;-77
2022/10/08 03:47:15;;;;;;;0.10;0.10;;;;;;;10.87;100.00;101615.78;4976373;28;20373;-77
2022/10/08 03:49:40;;;;;;;0.10;0.10;;;;;;;10.80;100.00;101622.53;4981400;28;20073;-77
2022/10/08 03:52:06;;;;;;;0.10;0.10;;;;;;;10.75;100.00;101605.88;4985724;28;20136;-79
2022/10/08 03:54:34;;;;;;;0.15;0.15;;;;;;;10.71;100.00;101621.34;4979265;28;20045;-77
2022/10/08 03:56:59;;;;;;;0.10;0.10;;;;;;;10.47;100.00;101615.72;4987042;28;20034;-77
2022/10/08 03:59:24;;;;;;;0.10;0.10;;;;;;;10.57;100.00;101621.34;4983493;28;20030;-77
2022/10/08 04:01:50;;;;;;;0.00;0.00;;;;;;;10.48;100.00;101623.66;4985943;28;20058;-77
2022/10/08 04:04:15;;;;;;;0.10;0.10;;;;;;;10.49;100.00;101633.44;4980246;28;20508;-77
2022/10/08 04:06:40;;;;;;;0.10;0.10;;;;;;;10.57;100.00;101632.97;4982883;28;20030;-77
2022/10/08 04:09:05;;;;;;;0.10;0.10;;;;;;;10.51;100.00;101614.56;4985405;28;20034;-77
2022/10/08 04:11:31;;;;;;;0.05;0.05;;;;;;;10.35;100.00;101626.25;4985771;28;20362;-77
2022/10/08 04:13:56;;;;;;;0.10;0.10;;;;;;;10.45;100.00;101636.44;4983184;28;20038;-76
2022/10/08 04:16:21;;;;;;;0.10;0.10;;;;;;;10.38;100.00;101640.44;4986981;28;20113;-74
2022/10/08 04:18:47;;;;;;;0.10;0.10;;;;;;;10.42;100.00;101642.00;4986333;28;20034;-76
2022/10/08 04:21:15;;;;;;;0.20;0.20;;;;;;;10.22;100.00;101636.06;4982497;28;20034;-75
2022/10/08 04:23:41;;;;;;;0.10;0.10;;;;;;;10.29;100.00;101647.28;4985475;28;20408;-74
2022/10/08 04:26:09;;;;;;;0.00;0.00;;;;;;;10.23;100.00;101650.34;4981707;28;20029;-74
2022/10/08 04:28:35;;;;;;;0.10;0.10;;;;;;;10.16;100.00;101645.38;4984708;28;20022;-76
2022/10/08 04:31:05;;;;;;;0.00;0.00;;;;;;;10.19;100.00;101650.56;4982550;28;20037;-75
2022/10/08 04:33:33;;;;;;;0.20;0.20;;;;;;;10.27;100.00;101652.75;4987611;28;20068;-75
2022/10/08 04:35:58;;;;;;;0.10;0.10;;;;;;;10.02;100.00;101619.41;4985205;28;20384;-75
2022/10/08 04:38:24;;;;;;;0.10;0.10;;;;;;;10.31;100.00;101646.22;4990298;28;20026;-75
2022/10/08 04:41:04;;;;;;;0.10;0.10;;;;;;;10.28;100.00;101653.59;4987576;28;20217;-74
2022/10/08 04:43:29;;;;;;;0.10;0.10;;;;;;;10.41;100.00;101657.28;4986258;28;20022;-75
2022/10/08 04:45:55;;;;;;;0.10;0.10;;;;;;;10.37;100.00;101644.97;4987719;28;20015;-75
2022/10/08 04:48:20;;;;;;;0.10;0.10;;;;;;;10.42;100.00;101648.25;4985431;28;20030;-76
2022/10/08 04:50:45;;;;;;;0.00;0.00;;;;;;;10.28;100.00;101645.53;4988602;28;20037;-75
2022/10/08 04:53:10;;;;;;;0.10;0.10;;;;;;;10.23;100.00;101627.06;4988161;28;20195;-77
2022/10/08 04:55:36;;;;;;;0.10;0.10;;;;;;;10.38;100.00;101645.81;4969716;28;20484;-76
2022/10/08 04:58:01;;;;;;;0.10;0.10;;;;;;;10.52;100.00;101655.69;4984988;28;20026;-73
2022/10/08 05:00:26;;;;;;;0.10;0.10;;;;;;;10.54;100.00;101657.34;4982119;28;20108;-76
2022/10/08 05:02:52;;;;;;;0.10;0.10;;;;;;;10.55;100.00;101675.19;4989726;28;20037;-74
2022/10/08 05:05:17;;;;;;;0.10;0.10;;;;;;;10.70;100.00;101685.88;4984203;28;20445;-76
2022/10/08 05:07:43;;;;;;;0.10;0.10;;;;;;;10.63;100.00;101677.34;4980264;28;20030;-74
2022/10/08 05:10:08;;;;;;;0.10;0.10;;;;;;;10.71;100.00;101690.28;4983348;28;20145;-75
2022/10/08 05:12:33;;;;;;;0.10;0.10;;;;;;;10.72;100.00;101671.41;4980393;28;20148;-75
2022/10/08 05:14:59;;;;;;;0.10;0.10;;;;;;;10.87;100.00;101685.63;4980470;28;20512;-76
2022/10/08 05:17:24;;;;;;;0.10;0.10;;;;;;;10.89;100.00;101701.66;4989310;28;20442;-74
2022/10/08 05:19:49;;;;;;;0.10;0.10;;;;;;;10.77;100.00;101668.41;4989351;28;20042;-74
2022/10/08 05:22:15;;;;;;;0.00;0.00;;;;;;;10.67;100.00;101668.16;4986909;28;20110;-74
2022/10/08 05:24:40;;;;;;;0.00;0.00;;;;;;;10.73;100.00;101674.94;4993400;28;20041;-75
2022/10/08 05:27:05;;;;;;;0.00;0.00;;;;;;;10.97;100.00;101698.47;4984181;28;20481;-75
2022/10/08 05:29:31;;;;;;;0.10;0.10;;;;;;;10.94;100.00;101705.75;4987201;28;20476;-73
2022/10/08 05:31:56;;;;;;;0.10;0.10;;;;;;;10.83;100.00;101684.13;4968068;28;20038;-74
2022/10/08 05:34:22;;;;;;;0.10;0.10;;;;;;;10.69;100.00;101685.03;4986449;28;20041;-74
2022/10/08 05:36:47;;;;;;;0.10;0.10;;;;;;;10.86;100.00;101699.16;4985033;28;20045;-75
2022/10/08 05:39:13;;;;;;;0.08;0.08;;;;;;;10.93;100.00;101722.00;4991092;28;20021;-73
2022/10/08 05:41:39;;;;;;;0.10;0.10;;;;;;;10.98;100.00;101713.63;4983030;28;20114;-76
2022/10/08 05:44:06;;;;;;;0.10;0.10;;;;;;;10.80;100.00;101703.13;4981692;28;20045;-76
2022/10/08 05:46:33;;;;;;;0.20;0.20;;;;;;;11.00;100.00;101725.97;4985505;28;20022;-75
2022/10/08 05:49:00;;;;;;;0.10;0.10;;;;;;;11.09;100.00;101741.50;4983913;28;20120;-74
2022/10/08 05:51:26;;;;;;;0.10;0.10;;;;;;;10.97;100.00;101714.59;4962776;28;20056;-74
2022/10/08 05:53:52;;;;;;;0.10;0.10;;;;;;;10.76;100.00;101707.81;4983807;28;20464;-75
2022/10/08 05:56:20;;;;;;;0.10;0.10;;;;;;;10.99;100.00;101739.53;4982341;28;20050;-75
2022/10/08 05:58:45;;;;;;;0.10;0.10;;;;;;;10.88;100.00;101732.16;4980411;28;20069;-73
2022/10/08 06:01:20;;;;;;;0.10;0.10;;;;;;;11.09;100.00;101741.50;4979859;28;20035;-74
2022/10/08 06:03:56;;;;;;;0.10;0.10;;;;;;;10.86;100.00;101718.81;4982578;28;20354;-74
2022/10/08 06:06:22;;;;;;;0.10;0.10;;;;;;;10.77;100.00;101732.88;4983084;28;20559;-75
2022/10/08 06:08:59;;;;;;;0.10;0.10;;;;;;;10.98;100.00;101757.50;4981017;28;21242;-74
2022/10/08 06:11:25;;;;;;;0.13;0.13;;;;;;;10.98;100.00;101768.25;4984033;28;20030;-76
2022/10/08 06:13:54;;;;;;;0.10;0.10;;;;;;;10.97;100.00;101758.44;4981405;28;20068;-75
2022/10/08 06:16:20;;;;;;;0.10;0.10;;;;;;;11.02;100.00;101772.44;4980801;28;20026;-75
2022/10/08 06:18:45;;;;;;;0.10;0.10;;;;;;;10.81;100.00;101747.84;4977630;28;20030;-74
2022/10/08 06:21:13;;;;;;;0.10;0.10;;;;;;;10.91;100.00;101783.88;4982672;28;20487;-74
2022/10/08 06:23:43;;;;;;;0.10;0.10;;;;;;;10.87;100.00;101785.03;4967260;28;20492;-75
2022/10/08 06:26:09;;;;;;;0.13;0.13;;;;;;;10.71;100.00;101760.13;4980544;28;20030;-75
2022/10/08 06:28:36;;;;;;;0.10;0.10;;;;;;;10.91;100.00;101793.78;4979411;28;20421;-75
2022/10/08 06:31:01;;;;;;;0.10;0.10;;;;;;;10.89;100.00;101799.22;4969635;28;20029;-75
2022/10/08 06:33:27;;;;;;;0.10;0.10;;;;;;;10.86;100.00;101795.88;4984321;28;20088;-75
2022/10/08 06:35:53;;;;;;;0.10;0.10;;;;;;;10.70;100.00;101774.50;4967244;28;20019;-75
2022/10/08 06:38:18;;;;;;;0.10;0.10;;;;;;;10.80;100.00;101784.56;4986027;28;20053;-74
2022/10/08 06:40:43;;;;;;;0.10;0.10;;;;;;;10.88;100.00;101796.66;4983281;28;20501;-75
2022/10/08 06:43:14;;;;;;;0.10;0.10;;;;;;;10.72;100.00;101796.75;4978330;28;20292;-75
2022/10/08 06:45:41;;;;;;;0.10;0.10;;;;;;;10.73;100.00;101785.06;4979986;28;20045;-76
2022/10/08 06:48:07;;;;;;;0.10;0.10;;;;;;;10.67;100.00;101817.66;4970576;28;20466;-76
2022/10/08 06:50:33;;;;;;;0.10;0.10;;;;;;;10.82;100.00;101811.34;4982223;28;20361;-77
2022/10/08 06:52:58;;;;;;;0.20;0.20;;;;;;;10.78;100.00;101805.28;4985951;28;20033;-76
2022/10/08 06:55:23;;;;;;;0.10;0.10;;;;;;;10.86;100.00;101817.38;4978541;28;20030;-75
2022/10/08 06:57:49;;;;;;;0.10;0.10;;;;;;;10.89;100.00;101825.25;4982444;28;20518;-76
2022/10/08 07:00:14;;;;;;;0.10;0.10;;;;;;;10.97;100.00;101839.06;4982491;28;20113;-75
2022/10/08 07:02:39;;;;;;;0.10;0.10;;;;;;;11.08;100.00;101843.75;4964070;28;20485;-77
2022/10/08 07:05:05;;;;;;;0.20;0.20;;;;;;;11.05;100.00;101835.88;4966343;28;20062;-76
2022/10/08 07:07:31;;;;;;;0.20;0.20;;;;;;;11.03;100.00;101837.81;4978207;28;20034;-76
2022/10/08 07:09:56;;;;;;;0.10;0.10;;;;;;;11.04;100.00;101842.22;4966639;28;20821;-76
2022/10/08 07:12:21;;;;;;;0.20;0.20;;;;;;;11.04;100.00;101843.06;4983169;28;20069;-76
2022/10/08 07:14:47;;;;;;;0.05;0.05;;;;;;;11.30;100.00;101862.03;4965442;28;20037;-75
2022/10/08 07:17:12;;;;;;;0.10;0.10;;;;;;;11.21;100.00;101852.75;4988798;28;20164;-73
2022/10/08 07:19:37;;;;;;;0.20;0.20;;;;;;;11.18;100.00;101855.63;4984179;28;20053;-75
2022/10/08 07:22:03;;;;;;;0.10;0.10;;;;;;;11.45;100.00;101881.69;4985750;28;20046;-75
2022/10/08 07:24:28;;;;;;;0.05;0.05;;;;;;;11.42;100.00;101859.53;4964591;28;20474;-75
2022/10/08 07:26:53;;;;;;;0.10;0.10;;;;;;;11.38;100.00;101858.88;4984762;28;20021;-78
2022/10/08 07:29:19;;;;;;;0.10;0.10;;;;;;;11.49;100.00;101864.38;4983365;28;20088;-78
2022/10/08 07:31:44;;;;;;;0.10;0.10;;;;;;;11.52;100.00;101857.97;4986969;28;20088;-77
2022/10/08 07:34:11;;;;;;;0.10;0.10;;;;;;;11.57;100.00;101865.72;4983342;28;20400;-77
2022/10/08 07:36:37;;;;;;;0.10;0.10;;;;;;;11.76;100.00;101871.59;4985854;28;20032;-78
2022/10/08 07:39:06;;;;;;;0.15;0.15;;;;;;;11.92;100.00;101892.13;4981309;28;20034;-78
2022/10/08 07:41:31;;;;;;;0.20;0.20;;;;;;;12.10;100.00;101901.69;4984077;28;20026;-79
2022/10/08 07:43:58;;;;;;;0.10;0.10;;;;;;;12.11;100.00;101892.63;4981427;28;20057;-77
2022/10/08 07:46:25;;;;;;;0.10;0.10;;;;;;;12.11;100.00;101894.44;4963714;28;20101;-78
2022/10/08 07:48:52;;;;;;;0.10;0.10;;;;;;;12.30;100.00;101910.22;4983687;28;20035;-78
2022/10/08 07:51:19;;;;;;;0.10;0.10;;;;;;;12.42;100.00;101913.91;4988278;28;20033;-76
2022/10/08 07:53:44;;;;;;;0.10;0.10;;;;;;;12.40;100.00;101905.06;4983450;28;20472;-78
2022/10/08 07:56:12;;;;;;;0.10;0.10;;;;;;;12.65;100.00;101923.09;4980109;28;20398;-75
2022/10/08 07:58:38;;;;;;;0.10;0.10;;;;;;;12.51;100.00;101902.50;4980847;28;20050;-76
2022/10/08 08:01:05;;;;;;;0.10;0.10;;;;;;;12.77;100.00;101921.38;4979576;28;20030;-75
2022/10/08 08:03:30;;;;;;;0.00;0.00;;;;;;;12.74;100.00;101908.97;4978899;28;20121;-78
2022/10/08 08:06:11;;;;;;;0.20;0.20;;;;;;;12.90;100.00;101921.38;4979932;28;20042;-74
2022/10/08 08:08:38;;;;;;;0.10;0.10;;;;;;;12.97;100.00;101903.81;4967897;28;20408;-74
2022/10/08 08:11:05;;;;;;;0.10;0.10;;;;;;;13.10;100.00;101919.09;4982017;28;20034;-75
2022/10/08 08:13:32;;;;;;;0.10;0.10;;;;;;;13.34;100.00;101927.28;4982367;28;20037;-75
2022/10/08 08:16:05;;;;;;;0.10;0.10;;;;;;;13.25;100.00;101900.97;4980598;28;20031;-75
2022/10/08 08:18:32;;;;;;;0.10;0.10;;;;;;;13.41;100.00;101925.00;4975312;28;20370;-74
2022/10/08 08:20:59;;;;;;;0.00;0.00;;;;;;;13.66;99.93;101942.94;4988529;28;20033;-76
2022/10/08 08:23:29;;;;;;;0.10;0.10;;;;;;;13.77;98.80;101944.88;4988197;28;20027;-76
2022/10/08 08:25:54;;;;;;;0.10;0.10;;;;;;;13.86;97.79;101951.44;4981795;28;20511;-75
2022/10/08 08:28:19;;;;;;;0.10;0.10;;;;;;;13.82;97.55;101937.28;4974124;28;20124;-77
2022/10/08 08:30:45;;;;;;;0.10;0.10;;;;;;;13.86;96.00;101946.03;4980762;28;20509;-74
2022/10/08 08:33:11;;;;;;;0.05;0.05;;;;;;;14.00;96.16;101945.00;4979102;28;20731;-74
2022/10/08 08:35:37;;;;;;;0.10;0.10;;;;;;;14.07;93.76;101976.81;4980716;28;20113;-74
2022/10/08 08:38:02;;;;;;;0.10;0.10;;;;;;;14.22;92.32;101969.41;4983702;28;20588;-75
2022/10/08 08:40:27;;;;;;;0.10;0.10;;;;;;;14.01;88.32;101969.19;4980887;28;20122;-75
2022/10/08 08:42:54;;;;;;;0.10;0.10;;;;;;;13.78;88.13;101960.97;4984919;28;20096;-79
2022/10/08 08:45:25;;;;;;;0.03;0.03;;;;;;;14.10;89.81;101984.72;4985419;28;20053;-76
2022/10/08 08:47:59;;;;;;;0.10;0.10;;;;;;;14.13;85.00;101980.06;4982583;28;20073;-76
2022/10/08 08:50:28;;;;;;;0.00;0.00;;;;;;;14.23;84.64;101976.53;4981975;28;20061;-77
2022/10/08 08:52:54;;;;;;;0.10;0.10;;;;;;;14.16;81.16;101969.88;4986398;28;20113;-77
2022/10/08 08:55:45;;;;;;;0.10;0.10;;;;;;;14.50;82.46;102001.56;4976932;28;20114;-74
2022/10/08 08:58:19;;;;;;;0.10;0.10;;;;;;;14.59;80.57;102002.69;4984636;28;20046;-78
2022/10/08 09:00:51;;;;;;;0.05;0.05;;;;;;;14.69;80.99;102003.75;4988395;28;20101;-75
2022/10/08 09:03:21;;;;;;;0.10;0.10;;;;;;;14.55;77.74;102010.19;4984507;28;21224;-75
2022/10/08 09:05:50;;;;;;;0.10;0.10;;;;;;;14.67;78.95;102011.09;4987078;28;20022;-73
2022/10/08 09:08:19;;;;;;;0.10;0.10;;;;;;;14.55;75.94;102011.06;4982209;28;20062;-74
2022/10/08 09:10:49;;;;;;;0.10;0.10;;;;;;;14.44;77.43;101980.41;4981974;28;20073;-78
2022/10/08 09:13:19;;;;;;;0.10;0.10;;;;;;;14.78;77.36;102013.00;4986179;28;20065;-77
2022/10/08 09:15:45;;;;;;;0.00;0.00;;;;;;;14.91;76.77;101999.38;4967298;28;20018;-78
2022/10/08 09:18:12;;;;;;;0.10;0.10;;;;;;;15.12;74.92;102023.91;4961670;28;20030;-78
2022/10/08 09:20:38;;;;;;;0.10;0.10;;;;;;;15.28;74.44;102024.41;4977592;28;20033;-78
2022/10/08 09:23:12;;;;;;;0.10;0.10;;;;;;;15.11;73.23;102031.13;4983367;28;20050;-76
2022/10/08 09:25:38;;;;;;;;;;;;;;;15.29;72.63;102036.09;4965037;28;20065;-75
2022/10/08 09:28:03;;;;;;;0.10;0.10;;;;;;;15.31;72.04;102023.31;4966716;28;19925;-77
2022/10/08 09:30:37;;;;;;;0.00;0.00;;;;;;;15.30;73.79;102022.44;4978810;28;20291;-77
2022/10/08 09:33:24;;;;;;;0.10;0.10;;;;;;;15.42;72.45;102041.41;4991238;28;20033;-75
2022/10/08 09:35:51;;;;;;;0.10;0.10;;;;;;;15.36;70.56;102023.78;5001575;28;20046;-74
2022/10/08 09:38:27;;;;;;;0.03;0.03;;;;;;;15.25;71.42;102042.72;4992671;28;20026;-75
2022/10/08 09:40:59;;;;;;;0.10;0.10;;;;;;;15.31;71.96;102053.06;4981317;28;20404;-76
2022/10/08 09:43:25;;;;;;;0.10;0.10;;;;;;;15.68;71.77;102060.94;4986302;28;20029;-76
2022/10/08 09:45:50;;;;;;;0.08;0.08;;;;;;;16.02;69.47;102049.28;4981120;28;20026;-79
2022/10/08 09:48:17;;;;;;;0.00;0.00;;;;;;;16.39;71.31;102054.34;4986765;28;20031;-78
2022/10/08 09:51:11;;;;;;;0.00;0.00;;;;;;;16.08;67.76;102069.59;4984623;28;20037;-78
2022/10/08 09:53:42;;;;;;;0.10;0.10;;;;;;;15.92;65.34;102070.81;4984133;28;20294;-77
2022/10/08 09:56:08;;;;;;;0.10;0.10;;;;;;;15.64;66.63;102062.19;4989822;28;20046;-79
2022/10/08 09:58:39;;;;;;;0.00;0.00;;;;;;;15.64;68.71;102072.16;4979289;28;20026;-77
2022/10/08 10:01:04;;;;;;;0.10;0.10;;;;;;;15.58;66.24;102071.66;4998800;28;20031;-76
2022/10/08 10:03:30;;;;;;;0.00;0.00;;;;;;;15.72;69.75;102059.72;4976138;28;20062;-78
2022/10/08 10:05:57;;;;;;;0.10;0.10;;;;;;;16.31;66.64;102083.91;4996052;28;20033;-78
2022/10/08 10:08:45;;;;;;;0.00;0.00;;;;;;;16.22;63.24;102082.84;4981323;28;20045;-77
2022/10/08 10:11:16;;;;;;;0.05;0.05;;;;;;;16.09;63.77;102080.28;4982972;28;20030;-81
2022/10/08 10:13:42;;;;;;;0.00;0.00;;;;;;;15.84;64.72;102084.09;4979711;28;20033;-78
2022/10/08 10:16:21;;;;;;;0.03;0.03;;;;;;;15.83;67.81;102066.97;4984313;28;20033;-80
2022/10/08 10:18:59;;;;;;;0.10;0.10;;;;;;;16.30;65.70;102093.03;4979807;28;20033;-77
2022/10/08 10:21:38;;;;;;;0.00;0.00;;;;;;;15.97;63.70;102065.03;4978322;28;20030;-78
2022/10/08 10:24:18;;;;;;;0.00;0.00;;;;;;;16.62;65.14;102092.22;4980234;28;20057;-78
2022/10/08 10:26:44;;;;;;;0.00;0.00;;;;;;;16.57;62.60;102086.31;4985469;28;20475;-77
2022/10/08 10:29:17;;;;;;;0.00;0.00;;;;;;;16.40;62.30;102094.00;4981663;28;20376;-77
2022/10/08 10:31:50;;;;;;;0.00;0.00;;;;;;;16.33;63.46;102092.78;4966667;28;20030;-77
2022/10/08 10:34:29;;;;;;;0.10;0.10;;;;;;;15.93;63.45;102082.53;4987812;28;20054;-73
2022/10/08 10:37:09;;;;;;;0.10;0.10;;;;;;;16.26;60.98;102089.72;5000757;28;20169;-77
2022/10/08 10:39:43;;;;;;;0.00;0.00;;;;;;;17.23;61.06;102101.59;4975927;28;20124;-74
2022/10/08 10:42:42;;;;;;;0.10;0.10;;;;;;;18.01;56.98;102097.56;4983956;28;20527;-78
2022/10/08 10:45:19;;;;;;;0.08;0.08;;;;;;;18.34;53.55;102100.94;4983969;28;20045;-77
2022/10/08 10:47:45;;;;;;;0.10;0.10;;;;;;;18.69;52.68;102099.53;4982720;28;20034;-76
2022/10/08 10:50:14;;;;;;;0.10;0.10;;;;;;;18.94;50.44;102097.25;4981151;28;20029;-76
2022/10/08 10:52:50;;;;;;;0.00;0.00;;;;;;;19.52;49.73;102100.91;4986123;28;20022;-78
2022/10/08 10:55:20;;;;;;;0.10;0.10;;;;;;;19.93;47.18;102087.88;4979411;28;20100;-79
2022/10/08 10:57:48;;;;;;;0.03;0.03;;;;;;;20.33;46.26;102102.97;4974102;28;20068;-77
2022/10/08 11:00:25;;;;;;;0.10;0.10;;;;;;;20.30;45.97;102095.09;4984329;28;20166;-77
2022/10/08 11:03:13;;;;;;;0.00;0.00;;;;;;;20.66;45.47;102070.59;4985100;28;20096;-75
2022/10/08 11:05:39;;;;;;;0.00;0.00;;;;;;;20.85;46.09;102097.91;4977687;28;20065;-76
2022/10/08 11:08:10;;;;;;;0.00;0.00;;;;;;;21.35;44.97;102110.06;4973020;28;21800;-78
2022/10/08 11:10:45;;;;;;;0.00;0.00;;;;;;;21.28;45.07;102116.19;4997174;28;20026;-74
2022/10/08 11:13:48;;;;;;;0.00;0.00;;;;;;;21.66;43.00;102094.06;4980869;28;20044;-73
2022/10/08 11:16:24;;;;;;;0.00;0.00;;;;;;;22.20;42.71;102092.94;4961622;28;20057;-72
2022/10/08 11:18:54;;;;;;;0.00;0.00;;;;;;;21.85;40.38;102092.94;4984683;28;20058;-77
2022/10/08 11:21:32;;;;;;;0.10;0.10;;;;;;;22.00;38.74;102109.59;4975026;28;20488;-73
2022/10/08 11:24:06;;;;;;;0.10;0.10;;;;;;;22.42;37.76;102098.78;4987034;28;20034;-76
2022/10/08 11:27:04;;;;;;;0.00;0.00;;;;;;;22.73;38.47;102104.50;4978599;28;20034;-75
2022/10/08 11:29:54;;;;;;;0.00;0.00;;;;;;;22.68;37.44;102087.72;4983347;28;20138;-78
2022/10/08 11:32:19;;;;;;;0.00;0.00;;;;;;;22.03;41.31;102098.31;4959366;28;20033;-73
2022/10/08 11:34:49;;;;;;;0.00;0.00;;;;;;;22.72;43.24;102100.06;4980014;28;20030;-75